createdAt,value
2018-11-05T00:05:58.538Z,20.40
2018-11-05T00:12:03.260Z,22.17
2018-11-05T00:18:08.043Z,19.90
2018-11-05T00:24:13.180Z,20.77
2018-11-05T00:30:18.411Z,21.00
2018-11-05T00:36:23.113Z,20.80
2018-11-05T00:42:27.891Z,19.60
2018-11-05T00:48:32.620Z,21.63
2018-11-05T00:54:37.781Z,22.33
2018-11-05T01:00:42.519Z,21.33
2018-11-05T01:06:47.147Z,21.10
2018-11-05T01:12:51.923Z,21.53
2018-11-05T01:18:57.200Z,22.17
2018-11-05T01:25:02.404Z,20.67
2018-11-05T01:31:07.583Z,20.63
2018-11-05T01:37:12.375Z,22.07
2018-11-05T01:43:17.047Z,19.80
2018-11-05T01:49:22.116Z,20.80
2018-11-05T01:55:26.848Z,19.50
2018-11-05T02:01:31.586Z,21.03
2018-11-05T02:07:36.347Z,23.03
2018-11-05T02:13:41.124Z,24.70
2018-11-05T02:19:46.995Z,25.47
2018-11-05T02:25:51.695Z,28.10
2018-11-05T02:31:56.885Z,29.47
2018-11-05T02:38:01.593Z,29.87
2018-11-05T02:44:06.982Z,30.57
2018-11-05T02:50:13.054Z,29.37
2018-11-05T02:56:18.085Z,30.70
2018-11-05T03:02:23.112Z,29.53
2018-11-05T03:08:27.869Z,29.53
2018-11-05T03:14:32.648Z,30.43
2018-11-05T03:20:37.477Z,27.30
2018-11-05T03:26:42.215Z,29.27
2018-11-05T03:32:47.201Z,29.27
2018-11-05T03:38:51.870Z,29.97
2018-11-05T03:44:56.894Z,27.87
2018-11-05T03:51:01.659Z,29.30
2018-11-05T03:57:07.095Z,28.73
2018-11-05T04:03:12.138Z,28.80
2018-11-05T04:09:16.861Z,31.73
2018-11-05T04:15:22.386Z,31.30
2018-11-05T04:21:35.205Z,29.23
2018-11-05T04:27:40.696Z,25.57
2018-11-05T04:33:45.690Z,27.23
2018-11-05T04:39:50.443Z,27.37
2018-11-05T04:45:55.179Z,26.40
2018-11-05T04:51:59.945Z,22.90
2018-11-05T04:58:04.801Z,25.07
2018-11-05T05:04:09.643Z,25.60
2018-11-05T05:10:14.827Z,23.93
2018-11-05T05:16:19.949Z,22.53
2018-11-05T05:22:24.676Z,23.53
2018-11-05T05:28:29.332Z,23.17
2018-11-05T05:34:34.119Z,26.00
2018-11-05T05:40:39.182Z,22.97
2018-11-05T05:46:43.984Z,24.67
2018-11-05T05:52:50.051Z,24.20
2018-11-05T05:58:54.801Z,27.00
2018-11-05T06:04:59.557Z,27.40
2018-11-05T06:11:04.709Z,25.07
2018-11-05T06:17:09.535Z,27.80
2018-11-05T06:23:15.096Z,27.10
2018-11-05T06:29:19.884Z,28.00
2018-11-05T06:35:24.612Z,29.80
2018-11-05T06:41:30.140Z,28.07
2018-11-05T06:47:34.874Z,29.87
2018-11-05T06:53:39.871Z,28.20
2018-11-05T06:59:44.688Z,29.83
2018-11-05T07:05:49.538Z,29.67
2018-11-05T07:11:54.159Z,28.80
2018-11-05T07:17:58.866Z,28.90
2018-11-05T07:24:03.953Z,28.87
2018-11-05T07:30:14.286Z,26.50
2018-11-05T07:36:18.983Z,29.83
2018-11-05T07:42:23.695Z,33.40
2018-11-05T07:48:29.321Z,29.80
2018-11-05T07:54:34.049Z,33.93
2018-11-05T08:00:44.066Z,29.63
2018-11-05T08:06:48.834Z,30.80
2018-11-05T08:12:53.516Z,27.60
2018-11-05T08:18:58.609Z,27.07
2018-11-05T08:25:04.175Z,25.60
2018-11-05T08:33:42.605Z,26.67
2018-11-05T08:39:47.348Z,31.07
2018-11-05T08:45:52.041Z,25.20
2018-11-05T08:51:56.866Z,25.20
2018-11-05T08:58:01.565Z,23.90
2018-11-05T09:04:07.203Z,25.97
2018-11-05T09:10:12.026Z,25.90
2018-11-05T09:16:16.835Z,25.00
2018-11-05T09:22:22.003Z,24.47
2018-11-05T09:28:27.028Z,24.70
2018-11-05T09:34:31.737Z,24.60
2018-11-05T09:40:36.971Z,25.17
2018-11-05T09:46:42.391Z,24.57
2018-11-05T09:52:47.226Z,25.30
2018-11-05T09:58:51.951Z,23.27
2018-11-05T10:04:56.935Z,24.30
2018-11-05T10:11:01.897Z,22.20
2018-11-05T10:17:07.248Z,20.23
2018-11-05T10:23:12.588Z,19.70
2018-11-05T10:29:17.494Z,19.77
2018-11-05T10:35:26.251Z,21.47
2018-11-05T10:41:30.996Z,21.80
2018-11-05T10:47:36.200Z,18.57
2018-11-05T10:53:40.902Z,20.33
2018-11-05T10:59:45.648Z,19.80
2018-11-05T11:05:50.305Z,19.63
2018-11-05T11:11:55.001Z,20.77
2018-11-05T11:18:00.059Z,21.43
2018-11-05T11:24:04.918Z,21.00
2018-11-05T11:30:12.577Z,19.70
2018-11-05T11:36:17.530Z,20.53
2018-11-05T11:42:22.596Z,21.70
2018-11-05T11:48:28.061Z,20.67
2018-11-05T11:54:32.750Z,23.27
2018-11-05T12:00:37.802Z,23.43
2018-11-05T12:06:42.875Z,21.90
2018-11-05T12:12:47.970Z,20.80
2018-11-05T12:18:52.674Z,22.03
2018-11-05T12:24:57.713Z,21.27
2018-11-05T12:31:02.919Z,22.50
2018-11-05T12:37:08.490Z,23.40
2018-11-05T12:43:13.264Z,21.97
2018-11-05T12:49:18.333Z,21.60
2018-11-05T12:55:23.428Z,19.93
2018-11-05T13:01:28.917Z,21.53
2018-11-05T13:07:33.639Z,20.43
2018-11-05T13:13:38.372Z,21.90
2018-11-05T13:19:43.035Z,21.70
2018-11-05T13:25:47.797Z,21.90
2018-11-05T13:31:52.446Z,21.07
2018-11-05T13:37:57.763Z,22.13
2018-11-05T13:44:02.677Z,22.33
2018-11-05T13:50:08.998Z,23.27
2018-11-05T13:56:13.494Z,21.20
2018-11-05T14:02:18.201Z,23.17
2018-11-05T14:08:22.871Z,22.43
2018-11-05T14:14:27.703Z,24.40
2018-11-05T14:20:33.133Z,26.13
2018-11-05T14:26:37.892Z,22.50
2018-11-05T14:32:43.957Z,27.30
2018-11-05T14:38:48.760Z,25.57
2018-11-05T14:44:53.622Z,24.97
2018-11-05T14:50:58.397Z,23.43
2018-11-05T14:57:03.680Z,25.50
2018-11-05T15:03:08.432Z,24.77
2018-11-05T15:09:13.876Z,50.00
2018-11-05T15:15:19.578Z,26.80
2018-11-05T15:21:24.358Z,26.00
2018-11-05T15:27:29.130Z,25.63
2018-11-05T15:33:34.062Z,23.70
2018-11-05T15:39:38.800Z,25.60
2018-11-05T15:45:43.444Z,29.27
2018-11-05T15:51:48.383Z,26.00
2018-11-05T15:57:53.372Z,25.80
2018-11-05T16:03:58.477Z,28.33
2018-11-05T16:10:03.266Z,29.43
2018-11-05T16:16:08.259Z,31.07
2018-11-05T16:22:12.972Z,28.20
2018-11-05T16:28:18.033Z,30.70
2018-11-05T16:34:22.826Z,29.43
2018-11-05T16:40:27.542Z,30.03
2018-11-05T16:46:32.818Z,30.70
2018-11-05T16:52:37.559Z,31.10
2018-11-05T16:58:42.212Z,30.43
2018-11-05T17:04:47.648Z,32.10
2018-11-05T17:10:52.697Z,34.13
2018-11-05T17:16:57.973Z,34.40
2018-11-05T17:23:03.793Z,34.70
2018-11-05T17:29:09.229Z,34.17
2018-11-05T17:35:14.372Z,33.70
2018-11-05T17:41:19.629Z,33.50
2018-11-05T17:47:24.952Z,32.87
2018-11-05T17:53:29.581Z,35.10
2018-11-05T17:59:34.991Z,36.60
2018-11-05T18:05:39.670Z,32.87
2018-11-05T18:11:44.317Z,33.83
2018-11-05T18:17:49.014Z,36.00
2018-11-05T18:23:53.706Z,31.30
2018-11-05T18:29:58.869Z,33.37
2018-11-05T18:36:03.570Z,36.70
2018-11-05T18:42:08.326Z,36.10
2018-11-05T18:48:13.377Z,35.50
2018-11-05T18:54:18.045Z,36.37
2018-11-05T19:00:25.073Z,35.20
2018-11-05T19:06:29.781Z,36.87
2018-11-05T19:12:34.722Z,35.80
2018-11-05T19:18:39.748Z,36.07
2018-11-05T19:24:44.384Z,35.57
2018-11-05T19:30:49.134Z,36.97
2018-11-05T19:36:53.837Z,38.80
2018-11-05T19:42:58.540Z,37.67
2018-11-05T19:49:03.193Z,37.97
2018-11-05T19:55:10.310Z,35.57
2018-11-05T20:01:15.060Z,36.20
2018-11-05T20:07:20.283Z,36.30
2018-11-05T20:13:24.922Z,36.63
2018-11-05T20:19:29.593Z,36.50
2018-11-05T20:25:35.769Z,37.27
2018-11-05T20:31:41.081Z,35.80
2018-11-05T20:37:45.359Z,36.73
2018-11-05T20:43:50.555Z,34.90
2018-11-05T20:49:55.196Z,36.03
2018-11-05T20:55:59.908Z,35.17
2018-11-05T21:02:04.951Z,36.03
2018-11-05T21:08:09.587Z,35.10
2018-11-05T21:14:14.715Z,32.87
2018-11-05T21:20:19.413Z,36.57
2018-11-05T21:26:24.104Z,37.97
2018-11-05T21:32:28.797Z,36.67
2018-11-05T21:38:34.149Z,37.60
2018-11-05T21:44:39.193Z,43.03
2018-11-05T21:50:43.899Z,38.23
2018-11-05T21:56:48.705Z,38.77
2018-11-05T22:03:09.519Z,36.90
2018-11-05T22:09:14.531Z,38.93
2018-11-05T22:15:19.780Z,40.03
2018-11-05T22:21:25.267Z,38.23
2018-11-05T22:27:30.239Z,38.37
2018-11-05T22:33:34.916Z,38.53
2018-11-05T22:39:39.630Z,39.43
2018-11-05T22:45:44.640Z,39.33
2018-11-05T22:51:49.321Z,38.33
2018-11-05T22:57:53.977Z,37.00
2018-11-05T23:03:58.959Z,37.40
2018-11-05T23:10:03.649Z,36.77
2018-11-05T23:16:08.492Z,35.47
2018-11-05T23:22:13.167Z,34.50
2018-11-05T23:28:18.231Z,34.67
2018-11-05T23:34:23.184Z,35.40
2018-11-05T23:40:27.812Z,37.27
2018-11-05T23:46:32.501Z,35.30
2018-11-05T23:52:37.513Z,32.70
2018-11-05T23:58:42.241Z,32.33
